createdAt,value
2023-03-30T00:01:18.888Z,100416.94
2023-03-30T00:03:50.059Z,100412.75
2023-03-30T00:06:23.455Z,100407.53
2023-03-30T00:09:00.647Z,100402.97
2023-03-30T00:11:34.112Z,100408.56
2023-03-30T00:14:02.344Z,100410.69
2023-03-30T00:16:31.765Z,100403.63
2023-03-30T00:18:58.901Z,100403.00
2023-03-30T00:21:28.287Z,100400.22
2023-03-30T00:23:57.378Z,100400.09
2023-03-30T00:26:24.666Z,100400.59
2023-03-30T00:28:52.492Z,100398.47
2023-03-30T00:31:20.512Z,100394.06
2023-03-30T00:33:47.986Z,100396.13
2023-03-30T00:36:16.578Z,100401.13
2023-03-30T00:38:48.434Z,100388.03
2023-03-30T00:41:18.338Z,100390.69
2023-03-30T00:44:51.917Z,100387.31
2023-03-30T00:47:19.819Z,100371.88
2023-03-30T00:49:47.488Z,100366.63
2023-03-30T00:52:19.321Z,100360.63
2023-03-30T00:54:47.605Z,100348.75
2023-03-30T00:57:17.670Z,100340.38
2023-03-30T00:59:45.289Z,100329.81
2023-03-30T01:02:15.462Z,100320.53
2023-03-30T01:04:45.835Z,100311.09
2023-03-30T01:07:13.645Z,100306.97
2023-03-30T01:09:42.961Z,100292.78
2023-03-30T01:12:11.228Z,100298.13
2023-03-30T01:14:42.299Z,100295.47
2023-03-30T01:17:33.098Z,100287.25
2023-03-30T01:20:20.896Z,100279.78
2023-03-30T01:23:13.580Z,100281.66
2023-03-30T01:26:11.561Z,100280.41
2023-03-30T01:29:00.539Z,100270.22
2023-03-30T01:32:03.240Z,100272.78
2023-03-30T01:34:48.250Z,100276.44
2023-03-30T01:37:37.374Z,100270.66
2023-03-30T01:40:13.201Z,100266.03
2023-03-30T01:42:57.974Z,100268.22
2023-03-30T01:45:45.700Z,100265.59
2023-03-30T01:48:39.444Z,100250.50
2023-03-30T01:51:13.140Z,100256.16
2023-03-30T01:54:08.410Z,100241.47
2023-03-30T01:56:57.127Z,100232.16
2023-03-30T01:59:37.551Z,100217.84
2023-03-30T02:02:07.247Z,100218.56
2023-03-30T02:04:42.132Z,100219.56
2023-03-30T02:07:24.192Z,100206.22
2023-03-30T02:09:55.045Z,100207.84
2023-03-30T02:12:23.844Z,100221.59
2023-03-30T02:14:52.913Z,100213.69
2023-03-30T02:17:27.236Z,100224.59
2023-03-30T02:20:00.425Z,100218.16
2023-03-30T02:22:30.630Z,100196.88
2023-03-30T02:24:58.574Z,100179.28
2023-03-30T02:27:27.748Z,100175.47
2023-03-30T02:29:57.029Z,100180.94
2023-03-30T02:32:37.148Z,100175.94
2023-03-30T02:35:26.770Z,100180.28
2023-03-30T02:38:35.561Z,100173.78
2023-03-30T02:41:31.232Z,100176.06
2023-03-30T02:44:22.458Z,100171.13
2023-03-30T02:47:00.450Z,100153.59
2023-03-30T02:49:43.581Z,100143.38
2023-03-30T02:52:57.526Z,100125.09
2023-03-30T02:55:51.388Z,100118.56
2023-03-30T02:58:47.570Z,100123.56
2023-03-30T03:01:47.899Z,100117.25
2023-03-30T03:04:15.689Z,100105.72
2023-03-30T03:06:43.294Z,100103.41
2023-03-30T03:09:10.262Z,100099.59
2023-03-30T03:11:37.229Z,100102.66
2023-03-30T03:14:04.382Z,100099.38
2023-03-30T03:16:34.675Z,100089.00
2023-03-30T03:19:04.512Z,100085.38
2023-03-30T03:21:31.359Z,100083.84
2023-03-30T03:23:58.540Z,100077.28
2023-03-30T03:26:27.071Z,100063.53
2023-03-30T03:28:54.197Z,100060.75
2023-03-30T03:31:22.156Z,100057.66
2023-03-30T03:33:50.616Z,100048.78
2023-03-30T03:36:25.135Z,100050.75
2023-03-30T03:38:52.461Z,100038.84
2023-03-30T03:41:22.046Z,100047.34
2023-03-30T03:43:53.702Z,100061.06
2023-03-30T03:46:21.128Z,100042.47
2023-03-30T03:48:50.260Z,100036.31
2023-03-30T03:51:17.368Z,100046.94
2023-03-30T03:53:44.312Z,100043.66
2023-03-30T03:56:14.906Z,100029.81
2023-03-30T03:58:46.604Z,100018.69
2023-03-30T04:01:14.611Z,100018.44
2023-03-30T04:03:44.293Z,100024.78
2023-03-30T04:06:14.117Z,100017.31
2023-03-30T04:08:46.204Z,100029.16
2023-03-30T04:11:17.717Z,100030.16
2023-03-30T04:13:48.197Z,100018.84
2023-03-30T04:16:15.570Z,100031.75
2023-03-30T04:18:43.842Z,100009.06
2023-03-30T04:21:13.244Z,100003.94
2023-03-30T04:23:45.602Z,100001.66
2023-03-30T04:26:15.881Z,99993.53
2023-03-30T04:28:43.109Z,100003.25
2023-03-30T04:31:11.003Z,99999.38
2023-03-30T04:33:52.080Z,99991.53
2023-03-30T04:36:20.774Z,99993.09
2023-03-30T04:39:00.557Z,99994.22
2023-03-30T04:41:33.250Z,100001.47
2023-03-30T04:44:07.373Z,99977.81
2023-03-30T04:46:34.389Z,99978.97
2023-03-30T04:49:01.833Z,99982.19
2023-03-30T04:51:31.833Z,99982.78
2023-03-30T04:53:58.809Z,99970.94
2023-03-30T04:56:28.167Z,99981.31
2023-03-30T04:58:56.103Z,99965.91
2023-03-30T05:01:23.175Z,99961.31
2023-03-30T05:03:50.297Z,99965.63
2023-03-30T05:06:19.692Z,99955.81
2023-03-30T05:08:48.940Z,99953.13
2023-03-30T05:11:16.069Z,99946.38
2023-03-30T05:13:43.128Z,99947.13
2023-03-30T05:16:10.495Z,99951.31
2023-03-30T05:18:39.701Z,99942.75
2023-03-30T05:21:07.138Z,99926.78
2023-03-30T05:23:34.093Z,99943.47
2023-03-30T05:26:04.714Z,99925.28
2023-03-30T05:28:32.591Z,99921.94
2023-03-30T05:31:00.226Z,99918.56
2023-03-30T05:33:30.220Z,99916.13
2023-03-30T05:35:57.328Z,99911.28
2023-03-30T05:38:24.356Z,99921.38
2023-03-30T05:40:55.014Z,99925.56
2023-03-30T05:43:22.282Z,99933.22
2023-03-30T05:45:49.196Z,99942.47
2023-03-30T05:48:18.820Z,99943.59
2023-03-30T05:50:48.643Z,99946.75
2023-03-30T05:53:16.243Z,99950.78
2023-03-30T05:55:48.548Z,99942.00
2023-03-30T05:58:16.956Z,99929.19
2023-03-30T06:00:45.188Z,99931.97
2023-03-30T06:03:12.752Z,99930.22
2023-03-30T06:05:43.863Z,99943.50
2023-03-30T06:08:12.063Z,99943.44
2023-03-30T06:10:39.378Z,99929.59
2023-03-30T06:13:09.206Z,99923.00
2023-03-30T06:15:38.330Z,99922.06
2023-03-30T06:18:09.956Z,99925.28
2023-03-30T06:20:39.229Z,99926.03
2023-03-30T06:23:06.298Z,99932.75
2023-03-30T06:25:33.859Z,99933.03
2023-03-30T06:28:03.371Z,99922.91
2023-03-30T06:30:30.490Z,99929.25
2023-03-30T06:32:57.496Z,99934.13
2023-03-30T06:35:27.328Z,99925.59
2023-03-30T06:37:54.293Z,99922.72
2023-03-30T06:40:23.910Z,99930.31
2023-03-30T06:42:53.230Z,99931.97
2023-03-30T06:45:23.450Z,99926.38
2023-03-30T06:47:50.441Z,99925.34
2023-03-30T06:50:17.613Z,99923.75
2023-03-30T06:52:44.593Z,99909.59
2023-03-30T06:55:17.155Z,99902.94
2023-03-30T06:57:44.121Z,99904.28
2023-03-30T07:00:15.319Z,99897.88
2023-03-30T07:02:43.385Z,99900.44
2023-03-30T07:05:11.877Z,99902.34
2023-03-30T07:07:41.382Z,99897.78
2023-03-30T07:10:12.022Z,99909.09
2023-03-30T07:12:40.932Z,99895.06
2023-03-30T07:15:09.142Z,99890.47
2023-03-30T07:17:37.191Z,99885.03
2023-03-30T07:20:06.121Z,99876.50
2023-03-30T07:22:33.237Z,99884.19
2023-03-30T07:25:00.203Z,99896.53
2023-03-30T07:27:27.470Z,99888.34
2023-03-30T07:29:55.086Z,99893.34
2023-03-30T07:32:22.782Z,99890.22
2023-03-30T07:34:49.913Z,99890.69
2023-03-30T07:37:20.629Z,99897.25
2023-03-30T07:39:48.821Z,99897.34
2023-03-30T07:42:16.043Z,99900.72
2023-03-30T07:44:45.825Z,99909.91
2023-03-30T07:47:12.892Z,99921.03
2023-03-30T07:49:44.730Z,99922.72
2023-03-30T07:52:12.016Z,99919.16
2023-03-30T07:54:39.389Z,99918.13
2023-03-30T07:57:06.397Z,99922.94
2023-03-30T07:59:36.065Z,99927.78
2023-03-30T08:02:04.627Z,99917.69
2023-03-30T08:04:31.925Z,99922.09
2023-03-30T08:07:01.601Z,99922.50
2023-03-30T08:09:28.609Z,99925.44
2023-03-30T08:11:58.274Z,99922.84
2023-03-30T08:14:27.408Z,99920.97
2023-03-30T08:16:55.289Z,99927.53
2023-03-30T08:19:27.125Z,99926.16
2023-03-30T08:21:57.050Z,99935.41
2023-03-30T08:24:24.447Z,99942.97
2023-03-30T08:26:53.540Z,99916.41
2023-03-30T08:29:21.185Z,99916.16
2023-03-30T08:31:48.316Z,99906.06
2023-03-30T08:34:15.364Z,99900.91
2023-03-30T08:36:42.813Z,99908.28
2023-03-30T08:39:10.936Z,99918.78
2023-03-30T08:42:08.378Z,99911.78
2023-03-30T08:44:43.541Z,99909.06
2023-03-30T08:47:18.198Z,99900.47
2023-03-30T08:49:58.858Z,99896.22
2023-03-30T08:52:30.931Z,99897.09
2023-03-30T08:55:01.493Z,99903.84
2023-03-30T08:57:51.301Z,99909.63
2023-03-30T09:00:30.912Z,99894.19
2023-03-30T09:03:46.251Z,99886.22
2023-03-30T09:06:40.615Z,99900.94
2023-03-30T09:09:15.251Z,99893.47
2023-03-30T09:11:43.094Z,99893.31
2023-03-30T09:14:42.550Z,99884.34
2023-03-30T09:17:18.279Z,99874.63
2023-03-30T09:19:51.684Z,99887.59
2023-03-30T09:22:20.365Z,99883.22
2023-03-30T09:24:52.724Z,99877.13
2023-03-30T09:27:45.753Z,99884.09
2023-03-30T09:30:34.941Z,99884.25
2023-03-30T09:33:28.197Z,99895.16
2023-03-30T09:36:19.322Z,99887.41
2023-03-30T09:38:50.395Z,99887.81
2023-03-30T09:41:46.071Z,99875.84
2023-03-30T09:44:38.455Z,99882.72
2023-03-30T09:47:39.024Z,99880.19
2023-03-30T09:50:26.761Z,99886.09
2023-03-30T09:53:02.135Z,99888.13
2023-03-30T09:55:32.885Z,99885.75
2023-03-30T09:58:15.523Z,99877.91
2023-03-30T10:00:42.462Z,99886.19
2023-03-30T10:03:21.882Z,99885.38
2023-03-30T10:06:13.407Z,99895.25
2023-03-30T10:08:58.754Z,99881.78
2023-03-30T10:11:31.770Z,99887.84
2023-03-30T10:13:59.644Z,99891.09
2023-03-30T10:16:34.358Z,99887.75
2023-03-30T10:19:18.987Z,99883.34
2023-03-30T10:21:46.974Z,99888.72
2023-03-30T10:24:32.166Z,99885.72
2023-03-30T10:27:13.710Z,99892.72
2023-03-30T10:29:46.900Z,99889.63
2023-03-30T10:32:31.768Z,99890.75
2023-03-30T10:35:02.147Z,99879.25
2023-03-30T10:37:44.964Z,99878.63
2023-03-30T10:40:21.054Z,99887.47
2023-03-30T10:42:55.636Z,99873.78
2023-03-30T10:45:33.297Z,99878.28
2023-03-30T10:48:34.301Z,99874.28
2023-03-30T10:52:21.752Z,99873.56
2023-03-30T10:55:17.043Z,99888.06
2023-03-30T10:57:54.578Z,99887.75
2023-03-30T11:00:28.863Z,99881.28
2023-03-30T11:03:44.820Z,99867.44
2023-03-30T11:06:26.423Z,99872.56
2023-03-30T11:08:57.855Z,99870.19
2023-03-30T11:11:40.649Z,99874.28
2023-03-30T11:15:02.202Z,99872.38
2023-03-30T11:17:29.948Z,99877.94
2023-03-30T11:20:06.011Z,99867.19
2023-03-30T11:22:47.591Z,99863.59
2023-03-30T11:25:59.200Z,99866.03
2023-03-30T11:28:54.729Z,99859.56
2023-03-30T11:31:47.505Z,99853.47
2023-03-30T11:34:49.601Z,99847.81
2023-03-30T11:37:32.232Z,99860.81
2023-03-30T11:40:28.580Z,99837.91
2023-03-30T11:42:58.500Z,99840.06
2023-03-30T11:45:37.837Z,99840.63
2023-03-30T11:48:33.837Z,99813.53
2023-03-30T11:51:04.010Z,99811.66
2023-03-30T11:53:56.651Z,99812.19
2023-03-30T11:56:53.166Z,99822.69
2023-03-30T12:00:03.736Z,99825.44
2023-03-30T12:03:02.124Z,99817.63
2023-03-30T12:05:43.295Z,99815.19
2023-03-30T12:08:25.516Z,99833.09
2023-03-30T12:11:04.223Z,99820.03
2023-03-30T12:13:44.502Z,99816.09
2023-03-30T12:16:37.987Z,99812.44
2023-03-30T12:19:22.397Z,99815.94
2023-03-30T12:22:01.466Z,99802.44
2023-03-30T12:24:46.528Z,99819.78
2023-03-30T12:27:13.700Z,99810.97
2023-03-30T12:30:02.619Z,99827.22
2023-03-30T12:32:31.678Z,99899.34
2023-03-30T12:34:58.905Z,99922.69
2023-03-30T12:37:37.701Z,99930.00
2023-03-30T12:40:22.100Z,99920.28
2023-03-30T12:43:19.457Z,99901.75
2023-03-30T12:46:42.858Z,99906.78
2023-03-30T12:49:28.198Z,99904.16
2023-03-30T12:52:13.750Z,99906.50
2023-03-30T12:54:50.285Z,99893.94
2023-03-30T12:57:54.075Z,99899.81
2023-03-30T13:01:09.656Z,99900.25
2023-03-30T13:03:59.003Z,99889.53
2023-03-30T13:07:18.140Z,99895.41
2023-03-30T13:09:56.218Z,99892.44
2023-03-30T13:12:40.323Z,99892.13
2023-03-30T13:15:16.235Z,99906.13
2023-03-30T13:18:32.087Z,99898.66
2023-03-30T13:21:19.260Z,99896.41
2023-03-30T13:24:02.281Z,99896.38
2023-03-30T13:26:43.482Z,99889.88
2023-03-30T13:29:18.765Z,99896.81
2023-03-30T13:32:20.126Z,99889.72
2023-03-30T13:35:27.950Z,99893.63
2023-03-30T13:38:44.195Z,99904.03
2023-03-30T13:41:26.408Z,99888.78
2023-03-30T13:44:41.338Z,99891.78
2023-03-30T13:47:29.778Z,99890.97
2023-03-30T13:50:11.873Z,99894.56
2023-03-30T13:52:47.397Z,99889.41
2023-03-30T13:55:39.993Z,99901.47
2023-03-30T13:58:22.274Z,99887.47
2023-03-30T14:01:03.082Z,99899.50
2023-03-30T14:03:41.679Z,99899.00
2023-03-30T14:06:17.643Z,99902.69
2023-03-30T14:08:48.452Z,99904.59
2023-03-30T14:11:24.404Z,99907.84
2023-03-30T14:13:53.862Z,99913.03
2023-03-30T14:16:27.920Z,99916.59
2023-03-30T14:19:33.730Z,99917.94
2023-03-30T14:22:14.109Z,99909.88
2023-03-30T14:25:04.846Z,99905.03
2023-03-30T14:27:41.298Z,99899.78
2023-03-30T14:30:31.763Z,99905.88
2023-03-30T14:33:11.741Z,99909.63
2023-03-30T14:35:43.898Z,99907.31
2023-03-30T14:38:26.721Z,99906.72
2023-03-30T14:40:55.294Z,99893.22
2023-03-30T14:43:30.868Z,99916.94
2023-03-30T14:46:06.143Z,99906.81
2023-03-30T14:48:42.231Z,99913.47
2023-03-30T14:51:28.853Z,99905.41
2023-03-30T14:53:58.714Z,99902.66
2023-03-30T14:56:28.074Z,99912.06
2023-03-30T14:58:58.740Z,99904.31
2023-03-30T15:01:34.994Z,99908.16
2023-03-30T15:04:15.836Z,99896.28
2023-03-30T15:06:46.050Z,99902.88
2023-03-30T15:09:23.158Z,99902.63
2023-03-30T15:12:02.316Z,99899.72
2023-03-30T15:14:38.353Z,99891.97
2023-03-30T15:17:22.804Z,99893.56
2023-03-30T15:19:54.161Z,99887.25
2023-03-30T15:22:41.674Z,99890.72
2023-03-30T15:25:15.529Z,99886.63
2023-03-30T15:28:11.720Z,99890.44
2023-03-30T15:30:43.828Z,99887.81
2023-03-30T15:33:29.922Z,99885.28
2023-03-30T15:36:14.205Z,99875.63
2023-03-30T15:38:51.720Z,99879.34
2023-03-30T15:41:43.603Z,99879.78
2023-03-30T15:44:16.078Z,99883.78
2023-03-30T15:46:50.439Z,99886.66
2023-03-30T15:49:25.284Z,99893.47
2023-03-30T15:52:17.385Z,99903.47
2023-03-30T15:54:51.863Z,99890.97
2023-03-30T15:57:29.054Z,99891.78
2023-03-30T16:00:05.586Z,99891.31
2023-03-30T16:02:32.567Z,99893.91
2023-03-30T16:05:07.779Z,99890.59
2023-03-30T16:07:36.289Z,99889.31
2023-03-30T16:10:06.648Z,99885.34
2023-03-30T16:12:34.776Z,99885.47
2023-03-30T16:15:04.291Z,99885.25
2023-03-30T16:17:34.891Z,99886.56
2023-03-30T16:20:03.254Z,99891.56
2023-03-30T16:22:31.934Z,99885.72
2023-03-30T16:24:58.990Z,99900.41
2023-03-30T16:27:25.983Z,99896.91
2023-03-30T16:29:57.693Z,99898.78
2023-03-30T16:32:32.139Z,99898.38
2023-03-30T16:35:02.753Z,99891.00
2023-03-30T16:37:31.687Z,99893.19
2023-03-30T16:39:58.823Z,99882.50
2023-03-30T16:42:27.490Z,99889.53
2023-03-30T16:44:54.676Z,99893.34
2023-03-30T16:47:21.793Z,99900.22
2023-03-30T16:49:51.790Z,99895.41
2023-03-30T16:52:18.770Z,99907.56
2023-03-30T16:54:45.742Z,99916.94
2023-03-30T16:57:15.770Z,99919.53
2023-03-30T16:59:43.153Z,99918.50
2023-03-30T17:02:16.324Z,99926.69
2023-03-30T17:04:49.875Z,99925.03
2023-03-30T17:07:16.827Z,99928.59
2023-03-30T17:09:43.766Z,99928.03
2023-03-30T17:12:13.173Z,99936.19
2023-03-30T17:14:42.946Z,99939.22
2023-03-30T17:17:10.079Z,99959.94
2023-03-30T17:19:36.988Z,99958.13
2023-03-30T17:22:06.390Z,99972.13
2023-03-30T17:24:33.330Z,99956.84
2023-03-30T17:27:01.330Z,99962.31
2023-03-30T17:29:28.174Z,99954.59
2023-03-30T17:31:57.400Z,99955.75
2023-03-30T17:34:24.566Z,99958.34
2023-03-30T17:36:51.532Z,99964.06
2023-03-30T17:39:21.091Z,99963.31
2023-03-30T17:41:48.081Z,99959.72
2023-03-30T17:44:17.279Z,99957.81
2023-03-30T17:46:44.375Z,99959.06
2023-03-30T17:49:17.258Z,99961.22
2023-03-30T17:51:44.411Z,99962.50
2023-03-30T17:54:11.393Z,99969.19
2023-03-30T17:56:38.387Z,99960.88
2023-03-30T17:59:13.085Z,99955.38
2023-03-30T18:01:40.214Z,99959.81
2023-03-30T18:04:09.658Z,99957.06
2023-03-30T18:06:36.879Z,99958.56
2023-03-30T18:09:16.496Z,99950.34
2023-03-30T18:11:48.126Z,99961.69
2023-03-30T18:14:15.332Z,99955.41
2023-03-30T18:16:45.966Z,99944.06
2023-03-30T18:19:17.536Z,99948.69
2023-03-30T18:21:44.734Z,99956.22
2023-03-30T18:24:15.303Z,99964.66
2023-03-30T18:26:43.628Z,99985.41
2023-03-30T18:29:21.991Z,99981.22
2023-03-30T18:31:51.924Z,99971.16
2023-03-30T18:34:23.413Z,99965.28
2023-03-30T18:36:52.721Z,99966.50
2023-03-30T18:39:20.178Z,99970.91
2023-03-30T18:41:50.048Z,99987.44
2023-03-30T18:44:21.826Z,99978.66
2023-03-30T18:46:51.925Z,99986.19
2023-03-30T18:49:22.542Z,99984.56
2023-03-30T18:51:52.614Z,99988.72
2023-03-30T18:54:19.943Z,99992.09
2023-03-30T18:56:48.078Z,99988.13
2023-03-30T18:59:15.311Z,99993.38
2023-03-30T19:01:45.935Z,99992.53
2023-03-30T19:04:15.738Z,100012.66
2023-03-30T19:06:44.510Z,100010.56
2023-03-30T19:09:11.850Z,100021.06
2023-03-30T19:11:41.410Z,100013.91
2023-03-30T19:14:12.166Z,100010.78
2023-03-30T19:16:44.185Z,100006.78
2023-03-30T19:19:14.895Z,100018.13
2023-03-30T19:21:43.157Z,100016.44
2023-03-30T19:24:14.052Z,100017.28
2023-03-30T19:26:41.445Z,100010.16
2023-03-30T19:29:08.335Z,100012.25
2023-03-30T19:31:36.621Z,100013.25
2023-03-30T19:34:03.694Z,100022.91
2023-03-30T19:36:33.256Z,100013.13
2023-03-30T19:39:02.614Z,100016.47
2023-03-30T19:41:31.704Z,100007.00
2023-03-30T19:44:02.074Z,100015.06
2023-03-30T19:46:31.560Z,100009.97
2023-03-30T19:49:03.240Z,100013.41
2023-03-30T19:51:34.766Z,100015.84
2023-03-30T19:54:01.804Z,100015.13
2023-03-30T19:56:31.891Z,100013.06
2023-03-30T19:59:01.556Z,100018.69
2023-03-30T20:01:28.833Z,100013.47
2023-03-30T20:03:56.287Z,100007.38
2023-03-30T20:06:23.370Z,100020.81
2023-03-30T20:08:50.594Z,100012.97
2023-03-30T20:11:17.879Z,100014.84
2023-03-30T20:13:49.142Z,100003.03
2023-03-30T20:16:23.102Z,100004.53
2023-03-30T20:18:54.572Z,100004.41
2023-03-30T20:21:24.235Z,100004.19
2023-03-30T20:23:51.634Z,100013.84
2023-03-30T20:26:19.407Z,99997.84
2023-03-30T20:28:47.339Z,100000.56
2023-03-30T20:31:15.425Z,99999.28
2023-03-30T20:33:42.923Z,99996.97
2023-03-30T20:36:10.658Z,99987.63
2023-03-30T20:38:39.631Z,99989.38
2023-03-30T20:41:07.841Z,99991.22
2023-03-30T20:46:16.533Z,99985.47
2023-03-30T20:48:54.205Z,99988.03
2023-03-30T20:51:23.585Z,99981.13
2023-03-30T20:53:54.398Z,99986.31
2023-03-30T20:56:22.020Z,99992.28
2023-03-30T20:58:49.501Z,99982.91
2023-03-30T21:01:25.561Z,99980.03
2023-03-30T21:03:59.798Z,99983.91
2023-03-30T21:06:31.304Z,99987.63
2023-03-30T21:09:02.765Z,99996.41
2023-03-30T21:11:33.594Z,99990.44
2023-03-30T21:14:03.601Z,99991.41
2023-03-30T21:16:30.978Z,99995.66
2023-03-30T21:18:58.222Z,99990.75
2023-03-30T21:21:25.295Z,99987.72
2023-03-30T21:23:52.413Z,99990.00
2023-03-30T21:26:21.778Z,99983.63
2023-03-30T21:28:51.231Z,99978.88
2023-03-30T21:31:22.905Z,99967.56
2023-03-30T21:33:50.317Z,99976.25
2023-03-30T21:36:17.570Z,99975.25
2023-03-30T21:38:44.705Z,99972.69
2023-03-30T21:41:18.347Z,99968.84
2023-03-30T21:43:47.919Z,99973.78
2023-03-30T21:46:19.547Z,99974.31
2023-03-30T21:48:49.060Z,99966.19
2023-03-30T21:51:24.540Z,99965.56
2023-03-30T21:53:53.322Z,99962.59
2023-03-30T21:56:23.493Z,99961.31
2023-03-30T21:58:51.132Z,99957.72
2023-03-30T22:01:23.719Z,99963.94
2023-03-30T22:03:53.661Z,99961.22
2023-03-30T22:06:24.016Z,99955.84
2023-03-30T22:08:50.979Z,99956.56
2023-03-30T22:11:25.169Z,99949.16
2023-03-30T22:13:55.759Z,99957.25
2023-03-30T22:16:32.218Z,99951.38
2023-03-30T22:19:05.040Z,99946.34
2023-03-30T22:21:35.692Z,99946.69
2023-03-30T22:24:07.836Z,99945.00
2023-03-30T22:26:38.660Z,99948.03
2023-03-30T22:29:06.053Z,99937.81
2023-03-30T22:31:33.706Z,99933.78
2023-03-30T22:34:03.892Z,99939.09
2023-03-30T22:36:31.561Z,99929.38
2023-03-30T22:39:01.213Z,99937.34
2023-03-30T22:41:28.558Z,99936.66
2023-03-30T22:43:58.330Z,99941.78
2023-03-30T22:46:28.253Z,99936.25
2023-03-30T22:48:58.680Z,99931.28
2023-03-30T22:51:34.244Z,99930.03
2023-03-30T22:54:05.118Z,99921.19
2023-03-30T22:56:32.089Z,99931.50
2023-03-30T22:59:01.062Z,99927.50
2023-03-30T23:01:32.535Z,99916.06
2023-03-30T23:04:05.874Z,99920.28
2023-03-30T23:06:36.727Z,99923.22
2023-03-30T23:09:04.720Z,99921.44
2023-03-30T23:11:34.945Z,99917.13
2023-03-30T23:14:07.188Z,99932.22
2023-03-30T23:16:39.991Z,99917.78
2023-03-30T23:19:07.772Z,99909.88
2023-03-30T23:21:34.810Z,99901.06
2023-03-30T23:24:08.091Z,99911.91
2023-03-30T23:26:35.567Z,99910.28
2023-03-30T23:29:03.801Z,99911.69
2023-03-30T23:31:34.561Z,99908.84
2023-03-30T23:34:01.829Z,99910.41
2023-03-30T23:36:28.860Z,99908.44
2023-03-30T23:38:56.004Z,99901.38
2023-03-30T23:41:24.302Z,99901.34
2023-03-30T23:43:51.637Z,99897.13
2023-03-30T23:46:19.910Z,99885.72
2023-03-30T23:48:50.090Z,99884.53
2023-03-30T23:51:17.188Z,99889.13
2023-03-30T23:53:47.213Z,99890.38
2023-03-30T23:56:17.376Z,99885.44
2023-03-30T23:58:47.267Z,99886.03
